sensor_id;sensor_type;location;lat;lon;timestamp;temperature;humidity
25302;DHT22;13243;50.888;4.724;2022-10-23T00:02:58;13.70;99.90
25302;DHT22;13243;50.888;4.724;2022-10-23T00:08:00;13.70;99.90
25302;DHT22;13243;50.888;4.724;2022-10-23T00:13:02;13.50;99.90
25302;DHT22;13243;50.888;4.724;2022-10-23T00:18:04;13.50;99.90
25302;DHT22;13243;50.888;4.724;2022-10-23T00:23:06;13.40;99.90
25302;DHT22;13243;50.888;4.724;2022-10-23T00:28:08;13.40;99.90
25302;DHT22;13243;50.888;4.724;2022-10-23T00:33:10;13.40;99.90
25302;DHT22;13243;50.888;4.724;2022-10-23T00:38:12;13.50;99.90
25302;DHT22;13243;50.888;4.724;2022-10-23T00:43:24;13.50;99.90
25302;DHT22;13243;50.888;4.724;2022-10-23T00:48:27;13.60;99.90
25302;DHT22;13243;50.888;4.724;2022-10-23T00:53:29;13.50;99.90
25302;DHT22;13243;50.888;4.724;2022-10-23T00:58:31;13.60;99.90
25302;DHT22;13243;50.888;4.724;2022-10-23T01:03:33;13.60;99.90
25302;DHT22;13243;50.888;4.724;2022-10-23T01:08:42;13.60;99.90
25302;DHT22;13243;50.888;4.724;2022-10-23T01:20:00;13.80;99.90
25302;DHT22;13243;50.888;4.724;2022-10-23T01:25:26;14.10;99.90
25302;DHT22;13243;50.888;4.724;2022-10-23T01:30:29;14.10;99.90
25302;DHT22;13243;50.888;4.724;2022-10-23T01:35:44;14.30;99.90
25302;DHT22;13243;50.888;4.724;2022-10-23T01:40:58;14.30;99.90
25302;DHT22;13243;50.888;4.724;2022-10-23T01:46:06;14.40;99.90
25302;DHT22;13243;50.888;4.724;2022-10-23T01:51:11;14.40;99.90
25302;DHT22;13243;50.888;4.724;2022-10-23T01:56:19;14.40;99.90
25302;DHT22;13243;50.888;4.724;2022-10-23T02:01:24;14.50;99.90
25302;DHT22;13243;50.888;4.724;2022-10-23T02:06:27;14.50;99.90
25302;DHT22;13243;50.888;4.724;2022-10-23T02:11:30;14.50;99.90
25302;DHT22;13243;50.888;4.724;2022-10-23T02:16:40;14.50;99.90
25302;DHT22;13243;50.888;4.724;2022-10-23T02:22:05;14.60;99.90
25302;DHT22;13243;50.888;4.724;2022-10-23T02:27:11;14.60;99.90
25302;DHT22;13243;50.888;4.724;2022-10-23T02:32:14;14.60;99.90
25302;DHT22;13243;50.888;4.724;2022-10-23T02:37:18;14.60;99.90
25302;DHT22;13243;50.888;4.724;2022-10-23T02:42:28;14.60;99.90
25302;DHT22;13243;50.888;4.724;2022-10-23T02:47:51;14.50;99.90
25302;DHT22;13243;50.888;4.724;2022-10-23T03:03:52;14.60;99.90
25302;DHT22;13243;50.888;4.724;2022-10-23T03:08:58;14.60;99.90
25302;DHT22;13243;50.888;4.724;2022-10-23T03:14:00;14.70;99.90
25302;DHT22;13243;50.888;4.724;2022-10-23T03:19:02;14.80;99.90
25302;DHT22;13243;50.888;4.724;2022-10-23T03:24:04;14.70;99.90
25302;DHT22;13243;50.888;4.724;2022-10-23T03:29:06;14.70;99.90
25302;DHT22;13243;50.888;4.724;2022-10-23T03:34:09;14.70;99.90
25302;DHT22;13243;50.888;4.724;2022-10-23T03:39:12;14.70;99.90
25302;DHT22;13243;50.888;4.724;2022-10-23T03:44:13;14.70;99.90
25302;DHT22;13243;50.888;4.724;2022-10-23T03:49:15;14.70;99.90
25302;DHT22;13243;50.888;4.724;2022-10-23T03:54:22;14.80;99.90
25302;DHT22;13243;50.888;4.724;2022-10-23T03:59:24;14.70;99.90
25302;DHT22;13243;50.888;4.724;2022-10-23T04:04:26;14.70;99.90
25302;DHT22;13243;50.888;4.724;2022-10-23T04:09:28;14.70;99.90
25302;DHT22;13243;50.888;4.724;2022-10-23T04:14:29;14.70;99.90
25302;DHT22;13243;50.888;4.724;2022-10-23T04:19:31;14.70;99.90
25302;DHT22;13243;50.888;4.724;2022-10-23T04:24:33;14.70;99.90
25302;DHT22;13243;50.888;4.724;2022-10-23T04:29:35;14.80;99.90
25302;DHT22;13243;50.888;4.724;2022-10-23T04:34:37;14.70;99.90
25302;DHT22;13243;50.888;4.724;2022-10-23T04:39:38;14.70;99.90
25302;DHT22;13243;50.888;4.724;2022-10-23T04:44:40;14.70;99.90
25302;DHT22;13243;50.888;4.724;2022-10-23T04:49:42;14.70;99.90
25302;DHT22;13243;50.888;4.724;2022-10-23T04:54:44;14.70;99.90
25302;DHT22;13243;50.888;4.724;2022-10-23T04:59:46;14.80;99.90
25302;DHT22;13243;50.888;4.724;2022-10-23T05:04:47;14.80;99.90
25302;DHT22;13243;50.888;4.724;2022-10-23T05:09:49;14.80;99.90
25302;DHT22;13243;50.888;4.724;2022-10-23T05:14:51;14.80;99.90
25302;DHT22;13243;50.888;4.724;2022-10-23T05:19:54;14.90;99.90
25302;DHT22;13243;50.888;4.724;2022-10-23T05:24:58;14.80;99.90
25302;DHT22;13243;50.888;4.724;2022-10-23T05:30:03;14.90;99.90
25302;DHT22;13243;50.888;4.724;2022-10-23T05:35:08;14.90;99.90
25302;DHT22;13243;50.888;4.724;2022-10-23T05:40:11;15.00;99.90
25302;DHT22;13243;50.888;4.724;2022-10-23T05:45:13;14.90;99.90
25302;DHT22;13243;50.888;4.724;2022-10-23T05:50:15;15.00;99.90
25302;DHT22;13243;50.888;4.724;2022-10-23T05:55:17;14.90;99.90
25302;DHT22;13243;50.888;4.724;2022-10-23T06:00:19;15.00;99.90
25302;DHT22;13243;50.888;4.724;2022-10-23T06:05:21;14.90;99.90
25302;DHT22;13243;50.888;4.724;2022-10-23T06:10:22;15.00;99.90
25302;DHT22;13243;50.888;4.724;2022-10-23T06:15:25;14.90;99.90
25302;DHT22;13243;50.888;4.724;2022-10-23T06:20:27;14.80;99.90
25302;DHT22;13243;50.888;4.724;2022-10-23T06:25:29;14.80;99.90
25302;DHT22;13243;50.888;4.724;2022-10-23T06:30:31;14.80;99.90
25302;DHT22;13243;50.888;4.724;2022-10-23T06:35:33;14.90;99.90
25302;DHT22;13243;50.888;4.724;2022-10-23T06:40:35;14.90;99.90
25302;DHT22;13243;50.888;4.724;2022-10-23T06:45:37;14.90;99.90
25302;DHT22;13243;50.888;4.724;2022-10-23T06:50:39;14.90;99.90
25302;DHT22;13243;50.888;4.724;2022-10-23T06:55:41;14.90;99.90
25302;DHT22;13243;50.888;4.724;2022-10-23T07:00:43;14.90;99.90
25302;DHT22;13243;50.888;4.724;2022-10-23T07:05:45;15.00;99.90
25302;DHT22;13243;50.888;4.724;2022-10-23T07:10:48;15.00;99.90
25302;DHT22;13243;50.888;4.724;2022-10-23T07:15:50;15.00;99.90
25302;DHT22;13243;50.888;4.724;2022-10-23T07:20:57;15.10;99.90
25302;DHT22;13243;50.888;4.724;2022-10-23T07:26:17;15.10;99.90
25302;DHT22;13243;50.888;4.724;2022-10-23T07:31:20;15.20;99.90
25302;DHT22;13243;50.888;4.724;2022-10-23T07:36:28;15.20;99.90
25302;DHT22;13243;50.888;4.724;2022-10-23T07:41:30;15.20;99.90
25302;DHT22;13243;50.888;4.724;2022-10-23T07:46:32;15.30;99.90
25302;DHT22;13243;50.888;4.724;2022-10-23T07:51:34;15.40;99.90
25302;DHT22;13243;50.888;4.724;2022-10-23T07:56:36;15.50;99.90
25302;DHT22;13243;50.888;4.724;2022-10-23T08:01:38;15.50;99.90
25302;DHT22;13243;50.888;4.724;2022-10-23T08:06:40;15.50;99.90
25302;DHT22;13243;50.888;4.724;2022-10-23T08:11:42;15.50;99.90
25302;DHT22;13243;50.888;4.724;2022-10-23T08:16:44;15.50;99.90
25302;DHT22;13243;50.888;4.724;2022-10-23T08:21:47;15.60;99.90
25302;DHT22;13243;50.888;4.724;2022-10-23T08:26:49;15.60;99.90
25302;DHT22;13243;50.888;4.724;2022-10-23T08:31:53;15.70;99.90
25302;DHT22;13243;50.888;4.724;2022-10-23T08:36:56;15.70;99.90
25302;DHT22;13243;50.888;4.724;2022-10-23T08:41:58;15.80;99.90
25302;DHT22;13243;50.888;4.724;2022-10-23T08:47:35;15.80;99.90
25302;DHT22;13243;50.888;4.724;2022-10-23T08:52:51;15.70;99.90
25302;DHT22;13243;50.888;4.724;2022-10-23T08:58:06;15.70;99.90
25302;DHT22;13243;50.888;4.724;2022-10-23T09:03:09;15.80;99.90
25302;DHT22;13243;50.888;4.724;2022-10-23T09:18:56;15.90;99.90
25302;DHT22;13243;50.888;4.724;2022-10-23T09:23:58;15.90;99.90
25302;DHT22;13243;50.888;4.724;2022-10-23T09:34:26;16.00;99.90
25302;DHT22;13243;50.888;4.724;2022-10-23T09:44:32;16.20;99.90
25302;DHT22;13243;50.888;4.724;2022-10-23T09:49:38;16.30;99.90
25302;DHT22;13243;50.888;4.724;2022-10-23T09:54:47;16.50;99.90
25302;DHT22;13243;50.888;4.724;2022-10-23T09:59:53;16.60;99.90
25302;DHT22;13243;50.888;4.724;2022-10-23T10:04:56;16.70;99.90
25302;DHT22;13243;50.888;4.724;2022-10-23T10:09:58;16.90;99.90
25302;DHT22;13243;50.888;4.724;2022-10-23T10:20:42;17.10;99.90
25302;DHT22;13243;50.888;4.724;2022-10-23T10:26:02;17.30;99.90
25302;DHT22;13243;50.888;4.724;2022-10-23T10:36:31;17.50;99.90
25302;DHT22;13243;50.888;4.724;2022-10-23T10:57:39;17.80;99.90
25302;DHT22;13243;50.888;4.724;2022-10-23T11:08:35;18.00;99.90
25302;DHT22;13243;50.888;4.724;2022-10-23T11:13:57;18.10;99.90
25302;DHT22;13243;50.888;4.724;2022-10-23T11:35:47;18.40;99.90
25302;DHT22;13243;50.888;4.724;2022-10-23T11:40:57;18.50;99.90
25302;DHT22;13243;50.888;4.724;2022-10-23T11:51:29;18.80;99.90
25302;DHT22;13243;50.888;4.724;2022-10-23T11:56:31;18.90;99.90
25302;DHT22;13243;50.888;4.724;2022-10-23T12:01:42;19.00;99.90
25302;DHT22;13243;50.888;4.724;2022-10-23T12:06:51;19.00;99.90
25302;DHT22;13243;50.888;4.724;2022-10-23T12:12:27;19.10;99.90
25302;DHT22;13243;50.888;4.724;2022-10-23T12:17:33;19.20;99.90
25302;DHT22;13243;50.888;4.724;2022-10-23T12:38:57;19.50;99.90
25302;DHT22;13243;50.888;4.724;2022-10-23T12:44:02;19.50;99.90
25302;DHT22;13243;50.888;4.724;2022-10-23T12:49:17;19.50;99.90
25302;DHT22;13243;50.888;4.724;2022-10-23T12:54:20;19.60;99.90
25302;DHT22;13243;50.888;4.724;2022-10-23T12:59:26;19.60;99.90
25302;DHT22;13243;50.888;4.724;2022-10-23T13:04:33;19.80;99.90
25302;DHT22;13243;50.888;4.724;2022-10-23T13:09:39;19.90;99.90
25302;DHT22;13243;50.888;4.724;2022-10-23T13:14:53;20.10;99.90
25302;DHT22;13243;50.888;4.724;2022-10-23T13:19:55;20.10;99.90
25302;DHT22;13243;50.888;4.724;2022-10-23T13:24:57;20.30;99.90
25302;DHT22;13243;50.888;4.724;2022-10-23T13:29:59;20.30;99.90
25302;DHT22;13243;50.888;4.724;2022-10-23T13:35:01;20.10;99.90
25302;DHT22;13243;50.888;4.724;2022-10-23T13:40:25;20.10;99.90
25302;DHT22;13243;50.888;4.724;2022-10-23T13:45:27;20.00;99.90
25302;DHT22;13243;50.888;4.724;2022-10-23T13:50:29;19.90;99.90
25302;DHT22;13243;50.888;4.724;2022-10-23T13:55:31;19.90;99.90
25302;DHT22;13243;50.888;4.724;2022-10-23T14:00:34;19.90;99.90
25302;DHT22;13243;50.888;4.724;2022-10-23T14:05:36;19.90;99.90
25302;DHT22;13243;50.888;4.724;2022-10-23T14:10:38;20.00;99.90
25302;DHT22;13243;50.888;4.724;2022-10-23T14:15:39;19.90;99.90
25302;DHT22;13243;50.888;4.724;2022-10-23T14:20:41;19.90;99.90
25302;DHT22;13243;50.888;4.724;2022-10-23T14:25:43;19.80;99.90
25302;DHT22;13243;50.888;4.724;2022-10-23T14:30:45;19.70;99.90
25302;DHT22;13243;50.888;4.724;2022-10-23T14:35:49;19.70;99.90
25302;DHT22;13243;50.888;4.724;2022-10-23T14:40:51;19.60;99.90
25302;DHT22;13243;50.888;4.724;2022-10-23T14:45:53;19.70;99.90
25302;DHT22;13243;50.888;4.724;2022-10-23T14:50:55;19.60;99.90
25302;DHT22;13243;50.888;4.724;2022-10-23T14:56:02;19.60;99.90
25302;DHT22;13243;50.888;4.724;2022-10-23T15:01:05;19.50;99.90
25302;DHT22;13243;50.888;4.724;2022-10-23T15:06:07;19.40;99.90
25302;DHT22;13243;50.888;4.724;2022-10-23T15:11:09;19.40;99.90
25302;DHT22;13243;50.888;4.724;2022-10-23T15:16:13;19.30;99.90
25302;DHT22;13243;50.888;4.724;2022-10-23T15:21:15;19.20;99.90
25302;DHT22;13243;50.888;4.724;2022-10-23T15:26:18;19.20;99.90
25302;DHT22;13243;50.888;4.724;2022-10-23T15:31:47;19.20;99.90
25302;DHT22;13243;50.888;4.724;2022-10-23T15:36:49;19.10;99.90
25302;DHT22;13243;50.888;4.724;2022-10-23T15:41:54;19.20;99.90
25302;DHT22;13243;50.888;4.724;2022-10-23T15:46:56;19.10;99.90
25302;DHT22;13243;50.888;4.724;2022-10-23T15:51:58;19.20;99.90
25302;DHT22;13243;50.888;4.724;2022-10-23T15:57:01;19.20;99.90
25302;DHT22;13243;50.888;4.724;2022-10-23T16:02:04;19.20;99.90
25302;DHT22;13243;50.888;4.724;2022-10-23T16:07:06;19.30;99.90
25302;DHT22;13243;50.888;4.724;2022-10-23T16:12:08;19.30;99.90
25302;DHT22;13243;50.888;4.724;2022-10-23T16:17:10;19.30;99.90
25302;DHT22;13243;50.888;4.724;2022-10-23T16:22:13;19.20;99.90
25302;DHT22;13243;50.888;4.724;2022-10-23T16:27:16;19.00;99.90
25302;DHT22;13243;50.888;4.724;2022-10-23T16:32:18;19.00;99.90
25302;DHT22;13243;50.888;4.724;2022-10-23T16:37:20;18.90;99.90
25302;DHT22;13243;50.888;4.724;2022-10-23T16:42:21;18.90;99.90
25302;DHT22;13243;50.888;4.724;2022-10-23T16:47:24;18.80;99.90
25302;DHT22;13243;50.888;4.724;2022-10-23T16:52:27;18.80;99.90
25302;DHT22;13243;50.888;4.724;2022-10-23T16:57:29;18.70;99.90
25302;DHT22;13243;50.888;4.724;2022-10-23T17:02:31;18.70;99.90
25302;DHT22;13243;50.888;4.724;2022-10-23T17:07:33;18.60;99.90
25302;DHT22;13243;50.888;4.724;2022-10-23T17:12:35;18.50;99.90
25302;DHT22;13243;50.888;4.724;2022-10-23T17:17:37;18.50;99.90
25302;DHT22;13243;50.888;4.724;2022-10-23T17:22:38;18.40;99.90
25302;DHT22;13243;50.888;4.724;2022-10-23T17:27:40;18.30;99.90
25302;DHT22;13243;50.888;4.724;2022-10-23T17:32:43;18.30;99.90
25302;DHT22;13243;50.888;4.724;2022-10-23T17:37:45;18.20;99.90
25302;DHT22;13243;50.888;4.724;2022-10-23T17:42:47;18.20;99.90
25302;DHT22;13243;50.888;4.724;2022-10-23T17:47:49;18.10;99.90
25302;DHT22;13243;50.888;4.724;2022-10-23T17:52:51;18.10;99.90
25302;DHT22;13243;50.888;4.724;2022-10-23T17:57:53;18.00;99.90
25302;DHT22;13243;50.888;4.724;2022-10-23T18:02:57;18.00;99.90
25302;DHT22;13243;50.888;4.724;2022-10-23T18:07:59;18.00;99.90
25302;DHT22;13243;50.888;4.724;2022-10-23T18:13:01;18.00;99.90
25302;DHT22;13243;50.888;4.724;2022-10-23T18:18:03;18.00;99.90
25302;DHT22;13243;50.888;4.724;2022-10-23T18:23:08;17.90;99.90
25302;DHT22;13243;50.888;4.724;2022-10-23T18:28:10;18.00;99.90
25302;DHT22;13243;50.888;4.724;2022-10-23T18:33:13;18.00;99.90
25302;DHT22;13243;50.888;4.724;2022-10-23T18:38:15;17.90;99.90
25302;DHT22;13243;50.888;4.724;2022-10-23T18:43:17;18.00;99.90
25302;DHT22;13243;50.888;4.724;2022-10-23T18:48:39;17.90;99.90
25302;DHT22;13243;50.888;4.724;2022-10-23T18:53:41;17.70;99.90
25302;DHT22;13243;50.888;4.724;2022-10-23T18:58:43;17.90;99.90
25302;DHT22;13243;50.888;4.724;2022-10-23T19:03:45;17.80;99.90
25302;DHT22;13243;50.888;4.724;2022-10-23T19:08:47;17.60;99.90
25302;DHT22;13243;50.888;4.724;2022-10-23T19:13:50;17.40;99.90
25302;DHT22;13243;50.888;4.724;2022-10-23T19:18:56;17.40;99.90
25302;DHT22;13243;50.888;4.724;2022-10-23T19:24:05;17.30;99.90
25302;DHT22;13243;50.888;4.724;2022-10-23T19:29:10;17.20;99.90
25302;DHT22;13243;50.888;4.724;2022-10-23T19:34:18;17.20;99.90
25302;DHT22;13243;50.888;4.724;2022-10-23T19:39:21;17.20;99.90
25302;DHT22;13243;50.888;4.724;2022-10-23T19:44:23;17.20;99.90
25302;DHT22;13243;50.888;4.724;2022-10-23T19:49:25;16.80;99.90
25302;DHT22;13243;50.888;4.724;2022-10-23T19:54:27;16.70;99.90
25302;DHT22;13243;50.888;4.724;2022-10-23T19:59:29;16.40;99.90
25302;DHT22;13243;50.888;4.724;2022-10-23T20:04:31;16.30;99.90
25302;DHT22;13243;50.888;4.724;2022-10-23T20:09:33;16.40;99.90
25302;DHT22;13243;50.888;4.724;2022-10-23T20:14:35;16.70;99.90
25302;DHT22;13243;50.888;4.724;2022-10-23T20:19:37;16.90;99.90
25302;DHT22;13243;50.888;4.724;2022-10-23T20:24:39;17.10;99.90
25302;DHT22;13243;50.888;4.724;2022-10-23T20:29:43;17.10;99.90
25302;DHT22;13243;50.888;4.724;2022-10-23T20:34:45;17.10;99.90
25302;DHT22;13243;50.888;4.724;2022-10-23T20:39:47;17.20;99.90
25302;DHT22;13243;50.888;4.724;2022-10-23T20:44:49;17.20;99.90
25302;DHT22;13243;50.888;4.724;2022-10-23T20:49:51;17.30;99.90
25302;DHT22;13243;50.888;4.724;2022-10-23T20:54:53;17.30;99.90
25302;DHT22;13243;50.888;4.724;2022-10-23T20:59:54;17.40;99.90
25302;DHT22;13243;50.888;4.724;2022-10-23T21:04:56;17.30;99.90
25302;DHT22;13243;50.888;4.724;2022-10-23T21:09:58;17.30;99.90
25302;DHT22;13243;50.888;4.724;2022-10-23T21:15:00;17.40;99.90
25302;DHT22;13243;50.888;4.724;2022-10-23T21:20:02;17.40;99.90
25302;DHT22;13243;50.888;4.724;2022-10-23T21:25:04;17.40;99.90
25302;DHT22;13243;50.888;4.724;2022-10-23T21:30:06;17.40;99.90
25302;DHT22;13243;50.888;4.724;2022-10-23T21:35:09;17.30;99.90
25302;DHT22;13243;50.888;4.724;2022-10-23T21:40:11;17.30;99.90
25302;DHT22;13243;50.888;4.724;2022-10-23T21:45:13;17.20;99.90
25302;DHT22;13243;50.888;4.724;2022-10-23T21:50:15;17.20;99.90
25302;DHT22;13243;50.888;4.724;2022-10-23T21:55:17;17.30;99.90
25302;DHT22;13243;50.888;4.724;2022-10-23T22:00:19;17.30;99.90
25302;DHT22;13243;50.888;4.724;2022-10-23T22:05:21;17.20;99.90
25302;DHT22;13243;50.888;4.724;2022-10-23T22:10:23;17.30;99.90
25302;DHT22;13243;50.888;4.724;2022-10-23T22:15:24;17.20;99.90
25302;DHT22;13243;50.888;4.724;2022-10-23T22:20:26;17.20;99.90
25302;DHT22;13243;50.888;4.724;2022-10-23T22:25:28;17.10;99.90
25302;DHT22;13243;50.888;4.724;2022-10-23T22:30:35;17.10;99.90
25302;DHT22;13243;50.888;4.724;2022-10-23T22:35:37;17.10;99.90
25302;DHT22;13243;50.888;4.724;2022-10-23T22:40:38;17.10;99.90
25302;DHT22;13243;50.888;4.724;2022-10-23T22:45:47;17.00;99.90
25302;DHT22;13243;50.888;4.724;2022-10-23T22:50:49;17.10;99.90
25302;DHT22;13243;50.888;4.724;2022-10-23T22:55:52;17.30;99.90
25302;DHT22;13243;50.888;4.724;2022-10-23T23:01:03;17.20;99.90
25302;DHT22;13243;50.888;4.724;2022-10-23T23:06:06;17.20;99.90
25302;DHT22;13243;50.888;4.724;2022-10-23T23:11:11;17.30;99.90
25302;DHT22;13243;50.888;4.724;2022-10-23T23:16:21;17.30;99.90
25302;DHT22;13243;50.888;4.724;2022-10-23T23:21:24;17.20;99.90
25302;DHT22;13243;50.888;4.724;2022-10-23T23:26:26;17.20;99.90
25302;DHT22;13243;50.888;4.724;2022-10-23T23:31:28;17.40;99.90
25302;DHT22;13243;50.888;4.724;2022-10-23T23:36:30;17.30;99.90
25302;DHT22;13243;50.888;4.724;2022-10-23T23:41:33;17.30;99.90
25302;DHT22;13243;50.888;4.724;2022-10-23T23:46:34;17.30;99.90
25302;DHT22;13243;50.888;4.724;2022-10-23T23:51:36;17.30;99.90
25302;DHT22;13243;50.888;4.724;2022-10-23T23:56:38;17.30;99.90
